createdAt,value
2018-07-30T00:00:57.260Z,23.80
2018-07-30T00:05:53.792Z,23.70
2018-07-30T00:08:22.190Z,23.70
2018-07-30T00:10:50.613Z,23.70
2018-07-30T00:13:19.121Z,23.60
2018-07-30T00:15:47.788Z,23.60
2018-07-30T00:18:16.225Z,23.60
2018-07-30T00:20:44.620Z,23.60
2018-07-30T00:23:13.025Z,23.50
2018-07-30T00:25:41.448Z,23.50
2018-07-30T00:28:09.836Z,23.50
2018-07-30T00:30:38.253Z,23.50
2018-07-30T00:33:07.020Z,23.40
2018-07-30T00:35:35.443Z,23.40
2018-07-30T00:38:03.887Z,23.50
2018-07-30T00:40:32.284Z,23.40
2018-07-30T00:43:00.772Z,23.30
2018-07-30T00:45:29.204Z,23.20
2018-07-30T00:47:57.593Z,23.00
2018-07-30T00:50:26.152Z,22.80
2018-07-30T00:52:54.601Z,22.80
2018-07-30T00:55:23.010Z,22.70
2018-07-30T00:57:51.445Z,22.60
2018-07-30T01:00:19.835Z,22.50
2018-07-30T01:02:48.252Z,22.40
2018-07-30T01:05:16.692Z,22.30
2018-07-30T01:07:45.207Z,22.30
2018-07-30T01:10:13.545Z,22.20
2018-07-30T01:12:42.066Z,22.20
2018-07-30T01:15:10.428Z,22.10
2018-07-30T01:17:38.873Z,22.00
2018-07-30T01:20:07.292Z,21.90
2018-07-30T01:22:35.747Z,21.80
2018-07-30T01:25:04.201Z,21.80
2018-07-30T01:27:32.595Z,21.70
2018-07-30T01:30:01.030Z,21.70
2018-07-30T01:32:29.423Z,21.60
2018-07-30T01:34:57.783Z,21.60
2018-07-30T01:37:26.230Z,21.50
2018-07-30T01:39:54.693Z,21.50
2018-07-30T01:42:23.130Z,21.40
2018-07-30T01:44:51.552Z,21.40
2018-07-30T01:47:19.960Z,21.30
2018-07-30T01:49:48.335Z,21.30
2018-07-30T01:52:17.027Z,21.30
2018-07-30T01:54:45.448Z,21.20
2018-07-30T01:57:13.916Z,21.20
2018-07-30T01:59:42.345Z,21.20
2018-07-30T02:02:10.832Z,21.20
2018-07-30T02:04:39.336Z,21.10
2018-07-30T02:07:07.748Z,21.10
2018-07-30T02:09:36.217Z,21.10
2018-07-30T02:12:04.644Z,21.10
2018-07-30T02:14:33.059Z,21.10
2018-07-30T02:17:01.461Z,21.00
2018-07-30T02:19:30.117Z,21.00
2018-07-30T02:21:58.595Z,20.90
2018-07-30T02:24:27.100Z,20.90
2018-07-30T02:26:55.504Z,20.80
2018-07-30T02:29:23.954Z,20.80
2018-07-30T02:31:52.352Z,20.80
2018-07-30T02:34:20.749Z,20.90
2018-07-30T02:36:49.539Z,20.80
2018-07-30T02:39:17.996Z,20.80
2018-07-30T02:41:46.471Z,20.80
2018-07-30T02:44:15.016Z,20.80
2018-07-30T02:46:43.502Z,20.80
2018-07-30T02:49:12.292Z,20.70
2018-07-30T02:51:40.797Z,20.80
2018-07-30T02:54:09.462Z,20.80
2018-07-30T02:56:37.872Z,20.80
2018-07-30T02:59:06.550Z,20.80
2018-07-30T03:01:35.053Z,20.70
2018-07-30T03:04:03.520Z,20.70
2018-07-30T03:06:31.910Z,20.60
2018-07-30T03:09:00.309Z,20.60
2018-07-30T03:11:28.728Z,20.60
2018-07-30T03:13:57.305Z,20.60
2018-07-30T03:16:25.712Z,20.50
2018-07-30T03:18:54.104Z,20.50
2018-07-30T03:21:22.571Z,20.50
2018-07-30T03:23:50.979Z,20.50
2018-07-30T03:28:47.583Z,20.40
2018-07-30T03:31:16.025Z,20.40
2018-07-30T03:33:44.584Z,20.40
2018-07-30T03:36:13.008Z,20.30
2018-07-30T03:38:41.708Z,20.30
2018-07-30T03:41:10.820Z,20.20
2018-07-30T03:43:39.236Z,20.20
2018-07-30T03:46:07.914Z,20.10
2018-07-30T03:48:36.288Z,20.10
2018-07-30T03:51:04.737Z,20.10
2018-07-30T03:53:33.147Z,20.10
2018-07-30T03:56:01.536Z,20.10
2018-07-30T03:58:29.931Z,20.10
2018-07-30T04:00:58.391Z,20.10
2018-07-30T04:03:26.822Z,20.10
2018-07-30T04:05:55.624Z,20.10
2018-07-30T04:08:24.005Z,20.10
2018-07-30T04:10:52.388Z,20.10
2018-07-30T04:13:20.929Z,20.20
2018-07-30T04:15:49.317Z,20.30
2018-07-30T04:18:17.755Z,20.30
2018-07-30T04:20:46.282Z,20.30
2018-07-30T04:25:43.075Z,20.30
2018-07-30T04:28:11.468Z,20.40
2018-07-30T04:30:39.884Z,20.30
2018-07-30T04:35:36.524Z,20.30
2018-07-30T04:38:05.272Z,20.30
2018-07-30T04:40:33.664Z,20.30
2018-07-30T04:43:02.165Z,20.20
2018-07-30T04:45:30.609Z,20.30
2018-07-30T04:47:59.096Z,20.30
2018-07-30T04:50:27.517Z,20.30
2018-07-30T04:52:55.892Z,20.40
2018-07-30T04:55:24.304Z,20.50
2018-07-30T04:57:52.748Z,20.50
2018-07-30T05:00:21.147Z,20.50
2018-07-30T05:02:49.589Z,20.60
2018-07-30T05:05:18.042Z,20.60
2018-07-30T05:07:46.708Z,20.60
2018-07-30T05:10:15.240Z,20.60
2018-07-30T05:12:43.869Z,20.60
2018-07-30T05:15:12.471Z,20.70
2018-07-30T05:17:40.916Z,20.70
2018-07-30T05:20:09.318Z,20.70
2018-07-30T05:22:38.116Z,20.80
2018-07-30T05:25:07.157Z,20.80
2018-07-30T05:27:35.668Z,20.90
2018-07-30T05:30:04.701Z,21.00
2018-07-30T05:32:33.165Z,21.10
2018-07-30T05:35:01.655Z,21.10
2018-07-30T05:37:30.066Z,21.10
2018-07-30T05:39:58.511Z,21.30
2018-07-30T05:42:26.917Z,21.50
2018-07-30T05:44:55.584Z,21.60
2018-07-30T05:47:23.996Z,21.90
2018-07-30T05:49:52.404Z,22.30
2018-07-30T05:52:20.839Z,23.30
2018-07-30T05:54:49.210Z,24.70
2018-07-30T05:57:17.652Z,25.70
2018-07-30T05:59:46.149Z,26.70
2018-07-30T06:02:14.577Z,27.70
2018-07-30T06:04:43.083Z,28.40
2018-07-30T06:07:12.234Z,29.30
2018-07-30T06:09:40.787Z,29.60
2018-07-30T06:12:09.468Z,30.30
2018-07-30T06:14:37.951Z,30.40
2018-07-30T06:17:07.996Z,29.90
2018-07-30T06:19:36.509Z,29.80
2018-07-30T06:22:04.947Z,30.30
2018-07-30T06:24:33.364Z,30.40
2018-07-30T06:27:01.817Z,31.00
2018-07-30T06:29:31.830Z,31.20
2018-07-30T06:32:00.339Z,31.40
2018-07-30T06:34:28.747Z,31.50
2018-07-30T06:36:57.360Z,31.50
2018-07-30T06:39:26.326Z,31.80
2018-07-30T06:41:54.750Z,32.40
2018-07-30T06:44:23.148Z,32.40
2018-07-30T06:46:51.557Z,30.90
2018-07-30T06:49:19.973Z,30.40
2018-07-30T06:51:48.373Z,30.00
2018-07-30T06:54:16.756Z,29.70
2018-07-30T06:56:45.170Z,29.00
2018-07-30T06:59:13.876Z,28.30
2018-07-30T07:01:42.287Z,27.90
2018-07-30T07:04:10.692Z,27.80
2018-07-30T07:06:39.108Z,27.70
2018-07-30T07:09:09.304Z,27.50
2018-07-30T07:11:38.113Z,27.30
2018-07-30T07:14:06.931Z,27.10
2018-07-30T07:16:35.393Z,26.90
2018-07-30T07:19:03.873Z,26.90
2018-07-30T07:21:32.467Z,26.80
2018-07-30T07:24:01.352Z,27.00
2018-07-30T07:26:29.788Z,27.00
2018-07-30T07:28:58.307Z,26.90
2018-07-30T07:31:26.828Z,27.20
2018-07-30T07:33:55.565Z,27.50
2018-07-30T07:36:24.044Z,27.60
2018-07-30T07:38:52.580Z,27.80
2018-07-30T07:41:21.046Z,27.90
2018-07-30T07:43:49.920Z,28.10
2018-07-30T07:46:18.313Z,28.30
2018-07-30T07:48:46.714Z,28.50
2018-07-30T07:51:15.345Z,28.50
2018-07-30T07:53:43.734Z,28.30
2018-07-30T07:56:12.466Z,27.90
2018-07-30T07:58:40.880Z,28.40
2018-07-30T08:01:09.419Z,28.60
2018-07-30T08:06:05.963Z,29.20
2018-07-30T08:08:34.371Z,29.30
2018-07-30T08:11:02.875Z,29.30
2018-07-30T08:13:31.271Z,29.30
2018-07-30T08:15:59.721Z,29.40
2018-07-30T08:18:28.130Z,29.40
2018-07-30T08:20:56.963Z,29.50
2018-07-30T08:23:25.442Z,29.50
2018-07-30T08:25:53.888Z,29.70
2018-07-30T08:28:22.424Z,29.80
2018-07-30T08:30:50.884Z,29.80
2018-07-30T08:33:19.301Z,29.50
2018-07-30T08:35:47.857Z,29.40
2018-07-30T08:38:16.278Z,29.60
2018-07-30T08:40:44.689Z,29.80
2018-07-30T08:43:13.391Z,29.50
2018-07-30T08:45:42.450Z,29.30
2018-07-30T08:48:11.171Z,29.40
2018-07-30T08:50:39.608Z,29.60
2018-07-30T08:53:08.048Z,29.60
2018-07-30T08:55:36.546Z,29.80
2018-07-30T08:58:05.165Z,30.00
2018-07-30T09:00:33.757Z,30.00
2018-07-30T09:03:02.400Z,30.10
2018-07-30T09:05:30.844Z,30.20
2018-07-30T09:07:59.253Z,30.30
2018-07-30T09:10:27.680Z,29.70
2018-07-30T09:12:56.217Z,29.40
2018-07-30T09:15:24.586Z,29.70
2018-07-30T09:17:52.990Z,30.00
2018-07-30T09:20:21.397Z,29.80
2018-07-30T09:22:49.960Z,29.90
2018-07-30T09:25:18.469Z,29.80
2018-07-30T09:27:46.925Z,29.40
2018-07-30T09:30:15.472Z,29.00
2018-07-30T09:32:44.090Z,29.10
2018-07-30T09:35:12.514Z,29.40
2018-07-30T09:37:41.105Z,29.40
2018-07-30T09:40:09.572Z,29.40
2018-07-30T09:42:38.570Z,29.20
2018-07-30T09:45:07.061Z,29.10
2018-07-30T09:47:35.672Z,29.00
2018-07-30T09:50:04.337Z,28.80
2018-07-30T09:52:32.793Z,28.90
2018-07-30T09:55:01.265Z,29.00
2018-07-30T09:57:29.681Z,29.10
2018-07-30T09:59:58.159Z,29.10
2018-07-30T10:02:26.566Z,29.20
2018-07-30T10:04:55.017Z,29.10
2018-07-30T10:07:24.489Z,29.20
2018-07-30T10:09:53.064Z,29.30
2018-07-30T10:12:21.552Z,29.30
2018-07-30T10:14:49.958Z,29.30
2018-07-30T10:17:18.366Z,29.40
2018-07-30T10:19:46.784Z,29.50
2018-07-30T10:22:15.253Z,29.50
2018-07-30T10:24:43.720Z,29.60
2018-07-30T10:27:12.235Z,29.50
2018-07-30T10:29:40.660Z,29.30
2018-07-30T10:32:09.144Z,29.50
2018-07-30T10:34:37.711Z,29.80
2018-07-30T10:37:06.025Z,30.00
2018-07-30T10:39:34.528Z,30.00
2018-07-30T10:42:02.935Z,30.40
2018-07-30T10:44:31.380Z,30.60
2018-07-30T10:46:59.813Z,30.80
2018-07-30T10:49:28.399Z,30.80
2018-07-30T10:51:56.856Z,30.60
2018-07-30T10:54:25.270Z,30.60
2018-07-30T10:56:53.807Z,30.40
2018-07-30T10:59:22.239Z,30.50
2018-07-30T11:01:50.729Z,30.60
2018-07-30T11:04:19.206Z,30.60
2018-07-30T11:06:47.664Z,30.80
2018-07-30T11:09:16.241Z,30.80
2018-07-30T11:11:44.728Z,30.70
2018-07-30T11:14:13.379Z,30.80
2018-07-30T11:16:41.893Z,31.00
2018-07-30T11:19:10.292Z,31.10
2018-07-30T11:21:38.704Z,31.30
2018-07-30T11:24:07.104Z,31.20
2018-07-30T11:26:35.575Z,31.20
2018-07-30T11:29:04.828Z,31.10
2018-07-30T11:31:33.306Z,31.20
2018-07-30T11:34:01.726Z,31.20
2018-07-30T11:38:58.287Z,31.00
2018-07-30T11:41:26.779Z,30.90
2018-07-30T11:43:55.154Z,30.80
2018-07-30T11:46:23.603Z,31.10
2018-07-30T11:48:52.026Z,31.50
2018-07-30T11:51:20.413Z,31.30
2018-07-30T11:53:48.853Z,31.30
2018-07-30T11:56:17.246Z,31.50
2018-07-30T11:58:45.687Z,31.80
2018-07-30T12:01:14.294Z,32.10
2018-07-30T12:03:42.706Z,32.00
2018-07-30T12:06:11.313Z,31.00
2018-07-30T12:08:40.379Z,31.30
2018-07-30T12:11:08.817Z,32.00
2018-07-30T12:13:37.398Z,32.40
2018-07-30T12:16:05.839Z,32.60
2018-07-30T12:18:34.207Z,32.70
2018-07-30T12:21:02.689Z,32.60
2018-07-30T12:23:31.217Z,32.30
2018-07-30T12:25:59.629Z,32.30
2018-07-30T12:28:28.081Z,32.00
2018-07-30T12:30:56.511Z,32.00
2018-07-30T12:33:24.985Z,32.20
2018-07-30T12:35:53.448Z,32.10
2018-07-30T12:38:21.895Z,32.10
2018-07-30T12:40:50.363Z,32.10
2018-07-30T12:43:18.907Z,32.30
2018-07-30T12:45:48.085Z,32.30
2018-07-30T12:48:16.479Z,32.50
2018-07-30T12:50:45.238Z,32.40
2018-07-30T12:53:13.992Z,32.20
2018-07-30T12:55:42.533Z,32.30
2018-07-30T12:58:10.972Z,32.00
2018-07-30T13:00:39.431Z,31.90
2018-07-30T13:03:07.891Z,32.00
2018-07-30T13:05:36.373Z,32.20
2018-07-30T13:08:04.800Z,32.40
2018-07-30T13:10:33.601Z,32.40
2018-07-30T13:13:01.956Z,32.70
2018-07-30T13:15:30.440Z,32.70
2018-07-30T13:17:58.907Z,32.70
2018-07-30T13:20:27.376Z,33.10
2018-07-30T13:22:55.844Z,33.40
2018-07-30T13:25:24.368Z,33.50
2018-07-30T13:27:52.852Z,33.70
2018-07-30T13:30:21.300Z,33.80
2018-07-30T13:32:49.838Z,34.00
2018-07-30T13:35:18.299Z,34.00
2018-07-30T13:37:46.776Z,33.60
2018-07-30T13:40:15.329Z,33.80
2018-07-30T13:42:43.857Z,33.80
2018-07-30T13:45:12.268Z,33.80
2018-07-30T13:47:40.744Z,33.60
2018-07-30T13:50:10.331Z,33.40
2018-07-30T13:52:39.021Z,33.50
2018-07-30T13:55:08.914Z,33.60
2018-07-30T13:57:37.605Z,33.40
2018-07-30T14:00:08.356Z,33.40
2018-07-30T14:02:36.792Z,33.00
2018-07-30T14:05:06.038Z,32.90
2018-07-30T14:07:34.581Z,32.90
2018-07-30T14:10:03.093Z,32.90
2018-07-30T14:12:31.548Z,33.10
2018-07-30T14:14:59.969Z,33.20
2018-07-30T14:17:28.404Z,33.10
2018-07-30T14:19:56.876Z,33.20
2018-07-30T14:22:25.382Z,33.10
2018-07-30T14:24:53.930Z,33.10
2018-07-30T14:27:22.381Z,33.20
2018-07-30T14:32:18.998Z,33.40
2018-07-30T14:34:47.743Z,33.80
2018-07-30T14:37:16.284Z,33.80
2018-07-30T14:39:44.813Z,34.00
2018-07-30T14:42:13.342Z,34.30
2018-07-30T14:44:41.768Z,34.20
2018-07-30T14:47:10.231Z,34.30
2018-07-30T14:49:38.739Z,34.10
2018-07-30T14:54:35.438Z,33.90
2018-07-30T14:57:03.977Z,33.70
2018-07-30T15:02:00.577Z,33.60
2018-07-30T15:04:29.312Z,33.60
2018-07-30T15:06:57.939Z,33.50
2018-07-30T15:09:26.426Z,33.60
2018-07-30T15:11:55.196Z,33.60
2018-07-30T15:14:23.684Z,33.70
2018-07-30T15:16:52.114Z,33.60
2018-07-30T15:19:20.814Z,33.60
2018-07-30T15:21:49.238Z,33.60
2018-07-30T15:24:17.721Z,33.50
2018-07-30T15:26:46.209Z,33.20
2018-07-30T15:29:14.682Z,32.90
2018-07-30T15:31:43.189Z,32.80
2018-07-30T15:34:11.600Z,32.70
2018-07-30T15:36:40.055Z,32.70
2018-07-30T15:39:10.476Z,32.80
2018-07-30T15:41:38.949Z,33.00
2018-07-30T15:44:07.648Z,33.30
2018-07-30T15:46:36.436Z,33.60
2018-07-30T15:49:04.951Z,33.80
2018-07-30T15:51:33.458Z,33.80
2018-07-30T15:54:01.960Z,33.80
2018-07-30T15:56:30.554Z,33.70
2018-07-30T15:58:58.944Z,33.50
2018-07-30T16:01:27.443Z,33.20
2018-07-30T16:03:55.912Z,33.10
2018-07-30T16:06:24.347Z,32.80
2018-07-30T16:08:52.868Z,32.80
2018-07-30T16:11:21.341Z,32.60
2018-07-30T16:13:49.850Z,32.60
2018-07-30T16:16:18.276Z,32.60
2018-07-30T16:18:46.736Z,32.70
2018-07-30T16:23:43.588Z,32.80
2018-07-30T16:26:12.175Z,32.90
2018-07-30T16:28:40.669Z,32.90
2018-07-30T16:33:37.285Z,32.90
2018-07-30T16:36:05.961Z,33.00
2018-07-30T16:38:34.429Z,32.90
2018-07-30T16:41:02.993Z,32.80
2018-07-30T16:43:31.479Z,32.60
2018-07-30T16:45:59.951Z,32.40
2018-07-30T16:48:28.453Z,32.40
2018-07-30T16:50:56.920Z,32.30
2018-07-30T16:53:25.370Z,32.10
2018-07-30T16:55:53.798Z,32.00
2018-07-30T16:58:22.244Z,31.90
2018-07-30T17:00:50.692Z,31.90
2018-07-30T17:03:19.152Z,32.00
2018-07-30T17:05:47.672Z,32.00
2018-07-30T17:08:16.142Z,32.00
2018-07-30T17:10:44.546Z,32.00
2018-07-30T17:13:13.056Z,31.90
2018-07-30T17:15:41.512Z,31.70
2018-07-30T17:18:10.038Z,31.60
2018-07-30T17:20:38.975Z,31.50
2018-07-30T17:23:07.448Z,31.40
2018-07-30T17:25:35.925Z,31.30
2018-07-30T17:28:04.446Z,31.30
2018-07-30T17:30:33.239Z,31.30
2018-07-30T17:33:02.127Z,31.40
2018-07-30T17:35:31.121Z,31.40
2018-07-30T17:38:00.335Z,31.40
2018-07-30T17:40:28.815Z,31.30
2018-07-30T17:42:57.690Z,31.20
2018-07-30T17:45:26.196Z,31.10
2018-07-30T17:47:54.623Z,31.00
2018-07-30T17:50:23.029Z,30.90
2018-07-30T17:52:52.035Z,30.90
2018-07-30T17:55:20.928Z,30.90
2018-07-30T17:57:49.573Z,31.00
2018-07-30T18:00:18.114Z,31.00
2018-07-30T18:02:46.653Z,31.00
2018-07-30T18:05:18.192Z,30.90
2018-07-30T18:07:48.295Z,30.80
2018-07-30T18:10:17.352Z,30.70
2018-07-30T18:12:46.105Z,30.60
2018-07-30T18:15:14.652Z,30.50
2018-07-30T18:17:43.193Z,30.50
2018-07-30T18:20:11.627Z,30.40
2018-07-30T18:22:40.145Z,30.20
2018-07-30T18:25:08.619Z,30.10
2018-07-30T18:27:37.157Z,30.10
2018-07-30T18:30:06.539Z,30.00
2018-07-30T18:32:35.140Z,30.00
2018-07-30T18:35:03.724Z,30.00
2018-07-30T18:37:32.160Z,30.00
2018-07-30T18:40:00.694Z,29.90
2018-07-30T18:42:29.385Z,30.00
2018-07-30T18:44:57.844Z,29.90
2018-07-30T18:47:26.508Z,29.80
2018-07-30T18:49:54.924Z,29.80
2018-07-30T18:52:23.387Z,29.80
2018-07-30T18:54:51.800Z,29.70
2018-07-30T18:57:20.255Z,29.60
2018-07-30T18:59:48.688Z,29.70
2018-07-30T19:02:17.227Z,29.50
2018-07-30T19:04:45.723Z,29.40
2018-07-30T19:07:14.144Z,29.30
2018-07-30T19:09:42.730Z,29.20
2018-07-30T19:12:11.193Z,29.10
2018-07-30T19:14:39.610Z,29.00
2018-07-30T19:17:08.391Z,28.90
2018-07-30T19:19:37.149Z,28.80
2018-07-30T19:22:05.915Z,28.80
2018-07-30T19:24:34.337Z,28.70
2018-07-30T19:27:02.809Z,28.60
2018-07-30T19:29:31.530Z,28.70
2018-07-30T19:32:00.091Z,28.60
2018-07-30T19:34:28.893Z,28.50
2018-07-30T19:36:57.485Z,28.40
2018-07-30T19:39:25.948Z,28.30
2018-07-30T19:41:54.435Z,28.30
2018-07-30T19:44:23.276Z,28.20
2018-07-30T19:46:52.116Z,28.20
2018-07-30T19:49:21.109Z,28.20
2018-07-30T19:51:50.103Z,28.00
2018-07-30T19:54:18.564Z,27.90
2018-07-30T19:59:15.800Z,27.80
2018-07-30T20:01:44.856Z,27.70
2018-07-30T20:04:13.456Z,27.60
2018-07-30T20:06:42.231Z,27.50
2018-07-30T20:09:12.124Z,27.40
2018-07-30T20:11:40.552Z,27.30
2018-07-30T20:14:09.031Z,27.20
2018-07-30T20:16:37.567Z,27.20
2018-07-30T20:19:06.133Z,27.10
2018-07-30T20:21:34.962Z,27.10
2018-07-30T20:24:03.573Z,26.90
2018-07-30T20:26:32.335Z,27.00
2018-07-30T20:29:01.129Z,26.90
2018-07-30T20:31:29.628Z,26.90
2018-07-30T20:33:58.832Z,26.90
2018-07-30T20:36:27.285Z,26.70
2018-07-30T20:38:55.740Z,26.60
2018-07-30T20:43:53.376Z,26.50
2018-07-30T20:46:22.073Z,26.40
2018-07-30T20:48:50.572Z,26.30
2018-07-30T20:51:19.128Z,26.20
2018-07-30T20:53:47.777Z,26.10
2018-07-30T20:56:16.400Z,26.00
2018-07-30T20:58:44.823Z,25.90
2018-07-30T21:01:13.292Z,25.90
2018-07-30T21:03:41.769Z,25.80
2018-07-30T21:06:10.301Z,25.70
2018-07-30T21:08:38.748Z,25.70
2018-07-30T21:11:07.724Z,25.70
2018-07-30T21:13:36.159Z,25.60
2018-07-30T21:16:04.667Z,25.60
2018-07-30T21:18:33.168Z,25.50
2018-07-30T21:21:01.689Z,25.50
2018-07-30T21:23:30.151Z,25.40
2018-07-30T21:25:58.676Z,25.40
2018-07-30T21:28:27.108Z,25.40
2018-07-30T21:33:23.740Z,25.20
2018-07-30T21:35:52.292Z,25.10
2018-07-30T21:38:21.027Z,25.10
2018-07-30T21:40:49.460Z,25.10
2018-07-30T21:43:17.939Z,25.00
2018-07-30T21:45:46.432Z,25.00
2018-07-30T21:48:15.044Z,24.90
2018-07-30T21:50:44.142Z,24.90
2018-07-30T21:53:12.727Z,24.90
2018-07-30T21:55:41.168Z,24.90
2018-07-30T21:58:09.772Z,24.80
2018-07-30T22:00:38.276Z,24.80
2018-07-30T22:03:06.900Z,24.80
2018-07-30T22:05:35.412Z,24.80
2018-07-30T22:08:03.947Z,24.70
2018-07-30T22:10:32.575Z,24.60
2018-07-30T22:13:01.115Z,24.50
2018-07-30T22:15:29.524Z,24.50
2018-07-30T22:17:57.985Z,24.40
2018-07-30T22:20:26.432Z,24.40
2018-07-30T22:22:54.832Z,24.40
2018-07-30T22:25:23.254Z,24.30
2018-07-30T22:27:51.728Z,24.30
2018-07-30T22:30:20.157Z,24.30
2018-07-30T22:32:48.606Z,24.30
2018-07-30T22:35:17.285Z,24.20
2018-07-30T22:37:45.704Z,24.30
2018-07-30T22:40:14.121Z,24.40
2018-07-30T22:42:42.537Z,24.40
2018-07-30T22:45:11.110Z,24.50
2018-07-30T22:47:39.623Z,24.50
2018-07-30T22:50:08.076Z,24.50
2018-07-30T22:52:36.469Z,24.60
2018-07-30T22:55:05.258Z,24.70
2018-07-30T22:57:33.688Z,24.70
2018-07-30T23:00:02.068Z,24.80
2018-07-30T23:02:30.465Z,24.70
2018-07-30T23:04:58.917Z,24.80
2018-07-30T23:07:27.327Z,24.70
2018-07-30T23:09:55.779Z,24.80
2018-07-30T23:12:24.223Z,24.80
2018-07-30T23:14:52.637Z,24.90
2018-07-30T23:17:21.056Z,24.90
2018-07-30T23:19:49.492Z,24.80
2018-07-30T23:22:17.919Z,24.80
2018-07-30T23:24:46.363Z,24.70
2018-07-30T23:27:14.844Z,24.60
2018-07-30T23:29:43.291Z,24.50
2018-07-30T23:32:11.722Z,24.40
2018-07-30T23:34:40.137Z,24.30
2018-07-30T23:37:08.640Z,24.20
2018-07-30T23:39:37.023Z,24.20
2018-07-30T23:42:05.625Z,24.30
2018-07-30T23:44:34.047Z,24.20
2018-07-30T23:47:02.460Z,24.10
2018-07-30T23:49:30.905Z,24.00
2018-07-30T23:51:59.364Z,23.80
2018-07-30T23:54:27.812Z,23.80
2018-07-30T23:56:56.254Z,23.70
2018-07-30T23:59:24.700Z,23.60
